createdAt,value
2024-03-02T00:01:30.103Z,71.85
2024-03-02T00:04:00.870Z,72.63
2024-03-02T00:06:31.664Z,71.82
2024-03-02T00:09:02.661Z,72.66
2024-03-02T00:11:33.285Z,72.73
2024-03-02T00:14:03.778Z,72.53
2024-03-02T00:16:35.159Z,73.64
2024-03-02T00:19:08.166Z,73.65
2024-03-02T00:21:39.216Z,72.49
2024-03-02T00:24:30.683Z,75.52
2024-03-02T00:27:01.846Z,74.56
2024-03-02T00:29:32.382Z,74.69
2024-03-02T00:32:04.670Z,73.92
2024-03-02T00:34:35.749Z,74.17
2024-03-02T00:37:06.456Z,74.47
2024-03-02T00:39:37.761Z,74.37
2024-03-02T00:42:09.253Z,75.27
2024-03-02T00:44:40.025Z,74.64
2024-03-02T00:47:11.059Z,74.58
2024-03-02T00:49:42.008Z,74.85
2024-03-02T00:52:13.210Z,75.31
2024-03-02T00:54:44.188Z,74.90
2024-03-02T00:57:15.164Z,75.72
2024-03-02T00:59:45.705Z,76.28
2024-03-02T01:02:16.410Z,76.32
2024-03-02T01:04:47.030Z,75.86
2024-03-02T01:07:17.804Z,76.74
2024-03-02T01:09:49.088Z,76.35
2024-03-02T01:12:20.109Z,75.08
2024-03-02T01:14:50.873Z,75.40
2024-03-02T01:17:21.546Z,75.20
2024-03-02T01:19:52.043Z,74.71
2024-03-02T01:22:27.223Z,75.14
2024-03-02T01:24:57.802Z,74.72
2024-03-02T01:27:29.262Z,74.27
2024-03-02T01:30:02.014Z,73.90
2024-03-02T01:32:32.828Z,74.27
2024-03-02T01:35:03.336Z,73.33
2024-03-02T01:37:33.760Z,74.76
2024-03-02T01:40:05.147Z,73.65
2024-03-02T01:42:36.992Z,73.29
2024-03-02T01:45:09.541Z,73.27
2024-03-02T01:47:40.235Z,72.58
2024-03-02T01:50:11.211Z,72.21
2024-03-02T01:52:42.127Z,72.00
2024-03-02T01:55:12.832Z,72.15
2024-03-02T01:57:43.153Z,72.53
2024-03-02T02:00:14.754Z,73.08
2024-03-02T02:02:46.691Z,72.69
2024-03-02T02:05:17.262Z,74.05
2024-03-02T02:07:47.890Z,72.67
2024-03-02T02:10:19.010Z,73.07
2024-03-02T02:12:49.774Z,73.14
2024-03-02T02:15:31.175Z,74.00
2024-03-02T02:18:01.962Z,72.60
2024-03-02T02:20:32.589Z,72.71
2024-03-02T02:23:15.130Z,72.52
2024-03-02T02:25:45.628Z,72.76
2024-03-02T02:28:16.224Z,72.51
2024-03-02T02:30:46.779Z,72.25
2024-03-02T02:33:17.499Z,72.63
2024-03-02T02:35:48.093Z,72.48
2024-03-02T02:38:18.779Z,72.33
2024-03-02T02:40:49.144Z,71.86
2024-03-02T02:43:20.025Z,72.09
2024-03-02T02:45:50.944Z,72.33
2024-03-02T02:48:21.872Z,72.16
2024-03-02T02:50:52.534Z,72.43
2024-03-02T02:53:22.910Z,71.71
2024-03-02T02:55:53.801Z,71.72
2024-03-02T02:58:24.285Z,72.09
2024-03-02T03:00:57.032Z,71.81
2024-03-02T03:03:27.695Z,72.75
2024-03-02T03:05:58.116Z,72.65
2024-03-02T03:08:28.847Z,73.03
2024-03-02T03:11:00.152Z,72.56
2024-03-02T03:13:30.812Z,73.43
2024-03-02T03:16:01.736Z,73.09
2024-03-02T03:18:32.657Z,72.83
2024-03-02T03:21:03.083Z,72.68
2024-03-02T03:23:33.771Z,72.38
2024-03-02T03:26:04.297Z,72.51
2024-03-02T03:28:35.084Z,72.77
2024-03-02T03:31:05.976Z,72.26
2024-03-02T03:33:36.956Z,71.92
2024-03-02T03:36:07.947Z,72.29
2024-03-02T03:38:38.657Z,72.17
2024-03-02T03:41:09.327Z,72.24
2024-03-02T03:43:39.883Z,72.53
2024-03-02T03:46:10.368Z,72.05
2024-03-02T03:48:41.048Z,72.20
2024-03-02T03:51:11.787Z,72.50
2024-03-02T03:53:42.325Z,72.31
2024-03-02T03:56:12.929Z,72.03
2024-03-02T03:58:43.718Z,72.11
2024-03-02T04:01:14.276Z,71.80
2024-03-02T04:03:45.268Z,71.75
2024-03-02T04:06:16.352Z,71.58
2024-03-02T04:08:47.290Z,71.46
2024-03-02T04:11:18.811Z,71.75
2024-03-02T04:13:49.505Z,71.59
2024-03-02T04:16:19.990Z,70.21
2024-03-02T04:18:51.191Z,67.54
2024-03-02T04:21:21.921Z,65.78
2024-03-02T04:23:52.685Z,64.60
2024-03-02T04:26:24.352Z,63.42
2024-03-02T04:28:55.357Z,61.59
2024-03-02T04:31:26.061Z,61.94
2024-03-02T04:33:56.939Z,61.06
2024-03-02T04:36:27.625Z,60.30
2024-03-02T04:38:59.220Z,60.78
2024-03-02T04:41:29.999Z,59.21
2024-03-02T04:44:00.792Z,58.80
2024-03-02T04:46:31.141Z,59.59
2024-03-02T04:49:01.706Z,58.71
2024-03-02T04:51:32.280Z,58.95
2024-03-02T04:54:03.638Z,56.62
2024-03-02T04:56:34.188Z,57.68
2024-03-02T04:59:04.939Z,56.90
2024-03-02T05:01:36.153Z,57.37
2024-03-02T05:04:07.392Z,57.27
2024-03-02T05:06:38.068Z,57.33
2024-03-02T05:09:09.763Z,56.64
2024-03-02T05:11:40.978Z,56.48
2024-03-02T05:14:11.754Z,56.36
2024-03-02T05:16:43.622Z,56.69
2024-03-02T05:19:14.641Z,56.83
2024-03-02T05:21:45.695Z,56.27
2024-03-02T05:24:17.306Z,56.99
2024-03-02T05:26:48.420Z,56.51
2024-03-02T05:29:19.521Z,56.05
2024-03-02T05:31:50.868Z,55.73
2024-03-02T05:34:21.907Z,56.21
2024-03-02T05:36:52.872Z,55.86
2024-03-02T05:39:23.779Z,56.65
2024-03-02T05:41:54.432Z,56.78
2024-03-02T05:44:25.606Z,56.56
2024-03-02T05:46:56.131Z,56.13
2024-03-02T05:49:27.166Z,56.24
2024-03-02T05:51:58.096Z,56.01
2024-03-02T05:54:29.103Z,55.50
2024-03-02T05:57:18.713Z,55.87
2024-03-02T05:59:49.781Z,55.96
2024-03-02T06:02:20.381Z,55.29
2024-03-02T06:04:51.284Z,55.14
2024-03-02T06:07:22.021Z,55.48
2024-03-02T06:09:54.659Z,55.07
2024-03-02T06:12:26.400Z,55.10
2024-03-02T06:14:57.294Z,54.89
2024-03-02T06:17:28.232Z,54.67
2024-03-02T06:19:59.353Z,54.52
2024-03-02T06:22:30.263Z,54.97
2024-03-02T06:25:01.939Z,54.76
2024-03-02T06:27:35.187Z,54.75
2024-03-02T06:30:06.904Z,54.61
2024-03-02T06:32:40.535Z,54.16
2024-03-02T06:35:12.312Z,58.67
2024-03-02T06:37:43.421Z,61.51
2024-03-02T06:40:14.508Z,62.19
2024-03-02T06:42:45.509Z,62.64
2024-03-02T06:45:17.681Z,63.29
2024-03-02T06:47:48.595Z,64.17
2024-03-02T06:50:20.385Z,63.89
2024-03-02T06:52:51.085Z,64.30
2024-03-02T06:55:22.170Z,64.58
2024-03-02T06:57:54.409Z,64.61
2024-03-02T07:00:25.696Z,64.79
2024-03-02T07:02:56.684Z,64.65
2024-03-02T07:05:27.658Z,65.00
2024-03-02T07:07:58.435Z,64.62
2024-03-02T07:10:29.354Z,65.05
2024-03-02T07:13:01.163Z,64.88
2024-03-02T07:16:07.154Z,64.78
2024-03-02T07:18:43.821Z,65.10
2024-03-02T07:21:14.854Z,64.91
2024-03-02T07:23:45.463Z,65.15
2024-03-02T07:28:51.345Z,65.29
2024-03-02T07:31:22.204Z,65.00
2024-03-02T07:33:53.113Z,65.10
2024-03-02T07:36:24.156Z,65.33
2024-03-02T07:38:55.176Z,65.03
2024-03-02T07:41:26.176Z,65.46
2024-03-02T07:43:57.744Z,65.09
2024-03-02T07:46:28.384Z,65.34
2024-03-02T07:48:59.335Z,65.61
2024-03-02T07:51:30.302Z,65.27
2024-03-02T07:54:01.225Z,65.47
2024-03-02T07:56:32.331Z,65.33
2024-03-02T07:59:04.213Z,65.41
2024-03-02T08:01:35.754Z,65.52
2024-03-02T08:04:07.009Z,65.41
2024-03-02T08:06:38.195Z,65.34
2024-03-02T08:09:12.326Z,65.19
2024-03-02T08:11:43.328Z,65.16
2024-03-02T08:14:14.853Z,65.69
2024-03-02T08:16:50.244Z,65.67
2024-03-02T08:19:21.391Z,66.07
2024-03-02T08:21:52.472Z,65.76
2024-03-02T08:24:25.544Z,65.95
2024-03-02T08:26:56.703Z,65.81
2024-03-02T08:29:27.739Z,66.04
2024-03-02T08:31:59.039Z,66.09
2024-03-02T08:34:29.996Z,65.76
2024-03-02T08:37:01.050Z,65.95
2024-03-02T08:39:32.327Z,66.02
2024-03-02T08:42:03.194Z,66.23
2024-03-02T08:44:33.916Z,65.96
2024-03-02T08:47:05.046Z,66.11
2024-03-02T08:49:36.117Z,66.24
2024-03-02T08:52:07.408Z,65.95
2024-03-02T08:54:39.889Z,66.00
2024-03-02T08:57:10.945Z,66.45
2024-03-02T08:59:41.958Z,66.15
2024-03-02T09:02:13.302Z,66.59
2024-03-02T09:04:46.407Z,66.65
2024-03-02T09:07:17.633Z,67.06
2024-03-02T09:09:48.579Z,67.63
2024-03-02T09:12:19.430Z,67.43
2024-03-02T09:14:53.870Z,67.77
2024-03-02T09:17:25.210Z,67.15
2024-03-02T09:19:56.527Z,67.46
2024-03-02T09:22:27.758Z,67.94
2024-03-02T09:24:59.024Z,68.06
2024-03-02T09:27:30.418Z,67.99
2024-03-02T09:30:01.813Z,68.52
2024-03-02T09:32:33.082Z,69.51
2024-03-02T09:35:03.976Z,68.44
2024-03-02T09:37:35.200Z,68.82
2024-03-02T09:40:06.810Z,68.17
2024-03-02T09:42:39.217Z,68.22
2024-03-02T09:45:10.708Z,68.29
2024-03-02T09:47:41.780Z,67.96
2024-03-02T09:50:12.803Z,68.63
2024-03-02T09:52:45.878Z,68.41
2024-03-02T09:55:18.110Z,68.12
2024-03-02T09:57:51.000Z,68.61
2024-03-02T10:00:22.211Z,68.46
2024-03-02T10:02:54.401Z,68.20
2024-03-02T10:05:32.272Z,68.74
2024-03-02T10:08:04.573Z,68.30
2024-03-02T10:10:45.260Z,68.86
2024-03-02T10:13:17.211Z,68.04
2024-03-02T10:15:50.055Z,68.55
2024-03-02T10:18:33.972Z,68.25
2024-03-02T10:21:22.791Z,68.73
2024-03-02T10:23:53.710Z,68.01
2024-03-02T10:26:24.688Z,67.76
2024-03-02T10:29:01.775Z,68.22
2024-03-02T10:31:34.809Z,68.04
2024-03-02T10:34:06.736Z,68.15
2024-03-02T10:36:38.881Z,67.66
2024-03-02T10:39:10.952Z,68.05
2024-03-02T10:41:43.248Z,67.71
2024-03-02T10:44:15.926Z,68.51
2024-03-02T10:46:50.134Z,68.24
2024-03-02T10:49:21.903Z,68.56
2024-03-02T10:51:53.245Z,68.16
2024-03-02T10:54:29.104Z,68.51
2024-03-02T10:57:02.683Z,68.23
2024-03-02T10:59:38.997Z,68.75
2024-03-02T11:02:16.134Z,68.57
2024-03-02T11:04:50.872Z,68.11
2024-03-02T11:07:25.650Z,68.22
2024-03-02T11:10:10.928Z,68.90
2024-03-02T11:12:53.251Z,68.48
2024-03-02T11:15:28.864Z,68.70
2024-03-02T11:18:02.160Z,68.64
2024-03-02T11:20:37.827Z,68.18
2024-03-02T11:23:11.195Z,69.05
2024-03-02T11:25:42.377Z,68.50
2024-03-02T11:28:13.545Z,68.68
2024-03-02T11:30:44.590Z,68.50
2024-03-02T11:33:15.699Z,68.87
2024-03-02T11:35:50.053Z,68.42
2024-03-02T11:38:22.062Z,69.01
2024-03-02T11:40:53.395Z,68.71
2024-03-02T11:43:25.537Z,69.15
2024-03-02T11:46:06.688Z,69.28
2024-03-02T11:48:41.837Z,69.48
2024-03-02T11:51:14.734Z,69.62
2024-03-02T11:53:47.480Z,68.77
2024-03-02T11:56:19.852Z,69.63
2024-03-02T11:58:53.838Z,69.74
2024-03-02T12:01:25.936Z,70.16
2024-03-02T12:03:57.928Z,69.95
2024-03-02T12:06:29.166Z,69.82
2024-03-02T12:09:01.073Z,69.66
2024-03-02T12:11:32.060Z,70.15
2024-03-02T12:14:02.910Z,70.58
2024-03-02T12:16:33.965Z,70.76
2024-03-02T12:19:06.040Z,70.75
2024-03-02T12:21:37.503Z,70.61
2024-03-02T12:24:12.592Z,70.02
2024-03-02T12:26:44.259Z,70.79
2024-03-02T12:29:17.737Z,70.49
2024-03-02T12:31:50.791Z,70.10
2024-03-02T12:34:24.596Z,70.27
2024-03-02T12:36:56.147Z,70.91
2024-03-02T12:39:27.512Z,70.65
2024-03-02T12:41:58.511Z,70.72
2024-03-02T12:44:29.652Z,70.57
2024-03-02T12:47:02.276Z,70.69
2024-03-02T12:49:34.690Z,70.46
2024-03-02T12:52:06.120Z,69.96
2024-03-02T12:54:37.368Z,70.36
2024-03-02T12:57:08.592Z,69.59
2024-03-02T12:59:39.646Z,69.77
2024-03-02T13:02:15.559Z,69.70
2024-03-02T13:04:47.061Z,69.14
2024-03-02T13:07:18.426Z,70.02
2024-03-02T13:09:49.674Z,69.12
2024-03-02T13:12:23.050Z,68.77
2024-03-02T13:14:57.262Z,68.85
2024-03-02T13:17:30.576Z,68.97
2024-03-02T13:20:06.674Z,68.65
2024-03-02T13:22:39.650Z,68.54
2024-03-02T13:25:13.481Z,68.29
2024-03-02T13:27:45.478Z,68.37
2024-03-02T13:30:16.650Z,68.35
2024-03-02T13:32:47.681Z,68.26
2024-03-02T13:35:20.308Z,68.46
2024-03-02T13:37:56.298Z,68.38
2024-03-02T13:40:27.695Z,68.54
2024-03-02T13:43:00.581Z,68.24
2024-03-02T13:45:32.431Z,68.38
2024-03-02T13:48:08.796Z,68.30
2024-03-02T13:50:45.622Z,68.25
2024-03-02T13:53:18.488Z,68.15
2024-03-02T13:55:50.337Z,68.55
2024-03-02T13:58:23.332Z,68.24
2024-03-02T14:00:54.862Z,67.93
2024-03-02T14:03:31.619Z,68.32
2024-03-02T14:06:05.390Z,68.16
2024-03-02T14:08:38.212Z,68.28
2024-03-02T14:11:09.499Z,68.56
2024-03-02T14:13:43.877Z,68.10
2024-03-02T14:16:17.454Z,68.17
2024-03-02T14:18:50.655Z,68.05
2024-03-02T14:21:23.396Z,68.61
2024-03-02T14:23:54.869Z,68.46
2024-03-02T14:26:26.203Z,68.17
2024-03-02T14:28:58.569Z,68.54
2024-03-02T14:31:29.968Z,68.25
2024-03-02T14:34:04.819Z,68.27
2024-03-02T14:36:38.347Z,68.53
2024-03-02T14:39:12.524Z,69.35
2024-03-02T14:41:45.446Z,69.10
2024-03-02T14:44:17.537Z,67.49
2024-03-02T14:46:53.042Z,65.86
2024-03-02T14:49:24.525Z,64.71
2024-03-02T14:51:58.551Z,62.65
2024-03-02T14:54:31.767Z,63.06
2024-03-02T14:57:05.078Z,62.02
2024-03-02T14:59:37.556Z,60.72
2024-03-02T15:02:11.462Z,60.99
2024-03-02T15:04:42.940Z,60.61
2024-03-02T15:07:15.619Z,60.33
2024-03-02T15:09:48.086Z,58.98
2024-03-02T15:12:20.177Z,59.38
2024-03-02T15:14:54.338Z,58.69
2024-03-02T15:17:25.776Z,57.85
2024-03-02T15:19:56.980Z,58.55
2024-03-02T15:22:33.726Z,57.91
2024-03-02T15:25:05.723Z,59.78
2024-03-02T15:27:37.712Z,59.32
2024-03-02T15:30:16.371Z,58.67
2024-03-02T15:32:50.590Z,58.60
2024-03-02T15:35:22.315Z,58.95
2024-03-02T15:37:56.105Z,57.86
2024-03-02T15:40:32.155Z,58.00
2024-03-02T15:43:03.474Z,57.19
2024-03-02T15:45:36.414Z,57.22
2024-03-02T15:48:08.217Z,57.51
2024-03-02T15:50:44.143Z,56.73
2024-03-02T15:53:16.215Z,57.20
2024-03-02T15:55:48.570Z,56.17
2024-03-02T15:58:23.558Z,56.87
2024-03-02T16:00:55.067Z,56.85
2024-03-02T16:03:27.746Z,56.14
2024-03-02T16:05:59.434Z,56.59
2024-03-02T16:08:36.918Z,55.96
2024-03-02T16:11:12.099Z,56.85
2024-03-02T16:13:43.326Z,56.52
2024-03-02T16:16:15.149Z,55.79
2024-03-02T16:18:46.635Z,55.94
2024-03-02T16:21:18.255Z,55.75
2024-03-02T16:23:50.536Z,54.90
2024-03-02T16:26:23.813Z,55.89
2024-03-02T16:28:59.760Z,56.08
2024-03-02T16:31:33.964Z,55.89
2024-03-02T16:34:05.676Z,55.93
2024-03-02T16:36:40.689Z,56.18
2024-03-02T16:39:13.336Z,55.48
2024-03-02T16:41:50.036Z,55.92
2024-03-02T16:44:27.470Z,55.83
2024-03-02T16:46:59.245Z,56.07
2024-03-02T16:49:30.476Z,55.53
2024-03-02T16:52:06.928Z,55.83
2024-03-02T16:54:46.708Z,55.19
2024-03-02T16:57:19.459Z,56.22
2024-03-02T16:59:51.011Z,55.63
2024-03-02T17:02:22.517Z,55.35
2024-03-02T17:04:53.884Z,55.63
2024-03-02T17:07:27.714Z,55.48
2024-03-02T17:10:01.883Z,55.38
2024-03-02T17:12:36.639Z,54.82
2024-03-02T17:15:09.400Z,55.58
2024-03-02T17:17:41.646Z,55.88
2024-03-02T17:20:16.146Z,55.44
2024-03-02T17:22:51.859Z,55.15
2024-03-02T17:25:25.069Z,54.62
2024-03-02T17:28:34.401Z,55.10
2024-03-02T17:31:06.280Z,54.86
2024-03-02T17:33:38.922Z,55.69
2024-03-02T17:36:10.463Z,55.71
2024-03-02T17:38:45.128Z,54.87
2024-03-02T17:41:19.223Z,54.63
2024-03-02T17:43:50.402Z,55.52
2024-03-02T17:46:21.708Z,55.25
2024-03-02T17:48:52.709Z,54.78
2024-03-02T17:51:29.442Z,55.59
2024-03-02T17:54:03.263Z,55.12
2024-03-02T17:56:34.776Z,55.26
2024-03-02T17:59:08.400Z,54.96
2024-03-02T18:01:41.208Z,55.07
2024-03-02T18:04:13.417Z,54.66
2024-03-02T18:06:44.627Z,55.32
2024-03-02T18:09:15.891Z,55.33
2024-03-02T18:11:48.435Z,55.74
2024-03-02T18:14:19.826Z,56.23
2024-03-02T18:16:52.422Z,56.98
2024-03-02T18:19:26.067Z,57.34
2024-03-02T18:21:57.145Z,57.36
2024-03-02T18:24:34.204Z,58.25
2024-03-02T18:27:08.474Z,58.24
2024-03-02T18:29:40.211Z,58.47
2024-03-02T18:32:11.517Z,59.40
2024-03-02T18:34:42.714Z,59.56
2024-03-02T18:37:14.008Z,59.97
2024-03-02T18:39:46.185Z,60.09
2024-03-02T18:42:17.490Z,60.67
2024-03-02T18:44:49.522Z,59.98
2024-03-02T18:47:19.966Z,61.24
2024-03-02T18:49:50.616Z,60.58
2024-03-02T18:52:21.804Z,60.92
2024-03-02T18:54:52.894Z,61.14
2024-03-02T18:57:24.027Z,61.00
2024-03-02T18:59:55.181Z,61.87
2024-03-02T19:02:27.100Z,62.14
2024-03-02T19:04:57.576Z,62.31
2024-03-02T19:07:28.220Z,61.80
2024-03-02T19:09:59.385Z,61.98
2024-03-02T19:12:30.324Z,62.01
2024-03-02T19:15:03.167Z,62.63
2024-03-02T19:17:36.929Z,62.63
2024-03-02T19:20:09.666Z,63.24
2024-03-02T19:22:40.795Z,62.51
2024-03-02T19:25:15.590Z,63.40
2024-03-02T19:27:46.930Z,63.75
2024-03-02T19:30:18.014Z,63.18
2024-03-02T19:32:49.023Z,63.50
2024-03-02T19:35:19.824Z,63.38
2024-03-02T19:37:50.396Z,63.43
2024-03-02T19:40:21.396Z,63.70
2024-03-02T19:42:52.520Z,64.20
2024-03-02T19:45:23.311Z,63.94
2024-03-02T19:47:54.442Z,64.25
2024-03-02T19:50:25.473Z,64.63
2024-03-02T19:52:56.306Z,64.69
2024-03-02T19:55:31.710Z,64.31
2024-03-02T19:58:02.652Z,64.65
2024-03-02T20:00:33.548Z,64.99
2024-03-02T20:03:05.381Z,64.80
2024-03-02T20:05:36.253Z,65.14
2024-03-02T20:08:09.541Z,65.64
2024-03-02T20:10:40.248Z,64.88
2024-03-02T20:13:11.184Z,65.19
2024-03-02T20:15:42.993Z,65.92
2024-03-02T20:18:14.825Z,65.19
2024-03-02T20:20:45.527Z,65.63
2024-03-02T20:23:15.990Z,65.74
2024-03-02T20:25:46.747Z,65.74
2024-03-02T20:28:19.140Z,66.26
2024-03-02T20:30:49.863Z,66.06
2024-03-02T20:33:20.669Z,65.56
2024-03-02T20:35:51.157Z,66.23
2024-03-02T20:38:21.730Z,66.11
2024-03-02T20:40:53.488Z,66.12
2024-03-02T20:43:24.448Z,66.32
2024-03-02T20:45:54.917Z,65.86
2024-03-02T20:48:25.656Z,66.51
2024-03-02T20:50:57.102Z,66.81
2024-03-02T20:53:27.775Z,66.35
2024-03-02T20:55:58.253Z,66.33
2024-03-02T20:58:28.976Z,66.65
2024-03-02T21:01:00.079Z,67.05
2024-03-02T21:03:30.996Z,66.94
2024-03-02T21:06:02.959Z,67.23
2024-03-02T21:08:33.546Z,66.49
2024-03-02T21:11:07.427Z,67.24
2024-03-02T21:13:38.026Z,67.46
2024-03-02T21:16:09.353Z,67.54
2024-03-02T21:18:41.271Z,66.72
2024-03-02T21:21:15.142Z,67.13
2024-03-02T21:23:45.640Z,67.22
2024-03-02T21:26:15.905Z,66.75
2024-03-02T21:28:47.319Z,67.18
2024-03-02T21:31:18.815Z,67.43
2024-03-02T21:33:49.655Z,67.35
2024-03-02T21:36:20.170Z,67.55
2024-03-02T21:38:50.751Z,67.33
2024-03-02T21:41:21.141Z,67.00
2024-03-02T21:43:51.978Z,67.46
2024-03-02T21:46:22.668Z,68.09
2024-03-02T21:48:53.736Z,67.21
2024-03-02T21:51:24.590Z,67.85
2024-03-02T21:53:55.876Z,67.62
2024-03-02T21:56:27.053Z,67.93
2024-03-02T21:58:57.691Z,68.26
2024-03-02T22:01:29.296Z,67.71
2024-03-02T22:03:59.725Z,69.16
2024-03-02T22:06:30.102Z,67.60
2024-03-02T22:09:00.857Z,67.88
2024-03-02T22:11:31.192Z,68.08
2024-03-02T22:14:01.977Z,68.02
2024-03-02T22:16:32.662Z,68.02
2024-03-02T22:19:03.019Z,67.88
2024-03-02T22:21:33.521Z,67.62
2024-03-02T22:24:04.301Z,67.39
2024-03-02T22:26:34.946Z,67.16
2024-03-02T22:29:06.141Z,67.09
2024-03-02T22:31:36.926Z,67.31
2024-03-02T22:34:07.863Z,67.26
2024-03-02T22:36:39.067Z,67.12
2024-03-02T22:39:09.946Z,67.57
2024-03-02T22:41:40.798Z,67.24
2024-03-02T22:44:11.303Z,67.09
2024-03-02T22:46:41.982Z,67.31
2024-03-02T22:49:12.811Z,67.13
2024-03-02T22:51:43.685Z,67.61
2024-03-02T22:54:14.221Z,67.12
2024-03-02T22:56:46.042Z,67.47
2024-03-02T22:59:16.341Z,68.14
2024-03-02T23:01:46.964Z,68.04
2024-03-02T23:04:17.923Z,68.45
2024-03-02T23:06:48.612Z,68.87
2024-03-02T23:09:19.203Z,68.93
2024-03-02T23:11:51.016Z,68.32
2024-03-02T23:14:21.788Z,68.34
2024-03-02T23:16:52.214Z,68.51
2024-03-02T23:19:24.392Z,68.42
2024-03-02T23:21:55.093Z,68.26
2024-03-02T23:24:25.703Z,68.46
2024-03-02T23:26:56.020Z,68.47
2024-03-02T23:29:27.325Z,69.05
2024-03-02T23:31:57.983Z,68.97
2024-03-02T23:34:29.825Z,69.12
2024-03-02T23:37:00.521Z,68.80
2024-03-02T23:39:49.218Z,68.58
2024-03-02T23:42:19.956Z,68.61
2024-03-02T23:44:50.609Z,68.87
2024-03-02T23:47:21.266Z,68.98
2024-03-02T23:49:51.966Z,68.82
2024-03-02T23:52:22.528Z,69.01
2024-03-02T23:54:53.083Z,68.42
2024-03-02T23:57:23.724Z,68.66
2024-03-02T23:59:54.424Z,69.17
